sensor_id;sensor_type;location;lat;lon;timestamp;P1;durP1;ratioP1;P2;durP2;ratioP2
13991;SDS011;7070;53.586;9.692;2023-05-10T00:02:00;0.43;;;0.43;;
13991;SDS011;7070;53.586;9.692;2023-05-10T00:04:27;0.40;;;0.40;;
13991;SDS011;7070;53.586;9.692;2023-05-10T00:06:54;0.50;;;0.50;;
13991;SDS011;7070;53.586;9.692;2023-05-10T00:09:22;0.30;;;0.30;;
13991;SDS011;7070;53.586;9.692;2023-05-10T00:11:49;0.40;;;0.40;;
13991;SDS011;7070;53.586;9.692;2023-05-10T00:14:16;0.40;;;0.40;;
13991;SDS011;7070;53.586;9.692;2023-05-10T00:16:43;0.40;;;0.40;;
13991;SDS011;7070;53.586;9.692;2023-05-10T00:19:10;0.40;;;0.40;;
13991;SDS011;7070;53.586;9.692;2023-05-10T00:21:38;0.40;;;0.40;;
13991;SDS011;7070;53.586;9.692;2023-05-10T00:24:05;0.40;;;0.40;;
13991;SDS011;7070;53.586;9.692;2023-05-10T00:26:33;0.40;;;0.40;;
13991;SDS011;7070;53.586;9.692;2023-05-10T00:29:00;0.50;;;0.50;;
13991;SDS011;7070;53.586;9.692;2023-05-10T00:31:27;0.40;;;0.40;;
13991;SDS011;7070;53.586;9.692;2023-05-10T00:33:54;0.40;;;0.40;;
13991;SDS011;7070;53.586;9.692;2023-05-10T00:36:21;0.40;;;0.40;;
13991;SDS011;7070;53.586;9.692;2023-05-10T00:38:47;0.40;;;0.40;;
13991;SDS011;7070;53.586;9.692;2023-05-10T00:41:14;0.40;;;0.40;;
13991;SDS011;7070;53.586;9.692;2023-05-10T00:43:43;0.40;;;0.40;;
13991;SDS011;7070;53.586;9.692;2023-05-10T00:46:10;0.50;;;0.50;;
13991;SDS011;7070;53.586;9.692;2023-05-10T00:48:37;0.50;;;0.50;;
13991;SDS011;7070;53.586;9.692;2023-05-10T00:51:04;0.50;;;0.50;;
13991;SDS011;7070;53.586;9.692;2023-05-10T00:53:31;0.47;;;0.47;;
13991;SDS011;7070;53.586;9.692;2023-05-10T00:55:59;0.40;;;0.40;;
13991;SDS011;7070;53.586;9.692;2023-05-10T00:58:26;0.40;;;0.40;;
13991;SDS011;7070;53.586;9.692;2023-05-10T01:00:57;0.50;;;0.50;;
13991;SDS011;7070;53.586;9.692;2023-05-10T01:03:25;0.40;;;0.40;;
13991;SDS011;7070;53.586;9.692;2023-05-10T01:05:52;0.50;;;0.50;;
13991;SDS011;7070;53.586;9.692;2023-05-10T01:08:19;0.50;;;0.50;;
13991;SDS011;7070;53.586;9.692;2023-05-10T01:10:46;0.40;;;0.40;;
13991;SDS011;7070;53.586;9.692;2023-05-10T01:13:14;0.50;;;0.50;;
13991;SDS011;7070;53.586;9.692;2023-05-10T01:15:57;0.40;;;0.40;;
13991;SDS011;7070;53.586;9.692;2023-05-10T01:18:24;0.40;;;0.40;;
13991;SDS011;7070;53.586;9.692;2023-05-10T01:20:54;0.50;;;0.50;;
13991;SDS011;7070;53.586;9.692;2023-05-10T01:23:45;0.50;;;0.50;;
13991;SDS011;7070;53.586;9.692;2023-05-10T01:26:47;0.37;;;0.37;;
13991;SDS011;7070;53.586;9.692;2023-05-10T01:29:41;0.50;;;0.50;;
13991;SDS011;7070;53.586;9.692;2023-05-10T01:32:26;0.60;;;0.60;;
13991;SDS011;7070;53.586;9.692;2023-05-10T01:34:59;0.50;;;0.50;;
13991;SDS011;7070;53.586;9.692;2023-05-10T01:37:31;0.40;;;0.40;;
13991;SDS011;7070;53.586;9.692;2023-05-10T01:40:08;0.50;;;0.50;;
13991;SDS011;7070;53.586;9.692;2023-05-10T01:42:46;0.40;;;0.40;;
13991;SDS011;7070;53.586;9.692;2023-05-10T01:45:18;0.50;;;0.50;;
13991;SDS011;7070;53.586;9.692;2023-05-10T01:47:54;0.40;;;0.40;;
13991;SDS011;7070;53.586;9.692;2023-05-10T01:50:30;0.50;;;0.50;;
13991;SDS011;7070;53.586;9.692;2023-05-10T01:52:59;0.40;;;0.40;;
13991;SDS011;7070;53.586;9.692;2023-05-10T01:55:30;0.40;;;0.40;;
13991;SDS011;7070;53.586;9.692;2023-05-10T01:58:02;0.50;;;0.50;;
13991;SDS011;7070;53.586;9.692;2023-05-10T02:00:33;0.40;;;0.40;;
13991;SDS011;7070;53.586;9.692;2023-05-10T02:03:03;0.50;;;0.50;;
13991;SDS011;7070;53.586;9.692;2023-05-10T02:05:33;0.40;;;0.40;;
13991;SDS011;7070;53.586;9.692;2023-05-10T02:08:01;0.50;;;0.50;;
13991;SDS011;7070;53.586;9.692;2023-05-10T02:10:32;0.50;;;0.50;;
13991;SDS011;7070;53.586;9.692;2023-05-10T02:13:00;0.43;;;0.43;;
13991;SDS011;7070;53.586;9.692;2023-05-10T02:15:28;0.50;;;0.50;;
13991;SDS011;7070;53.586;9.692;2023-05-10T02:17:57;0.50;;;0.50;;
13991;SDS011;7070;53.586;9.692;2023-05-10T02:20:27;0.50;;;0.50;;
13991;SDS011;7070;53.586;9.692;2023-05-10T02:22:57;0.50;;;0.50;;
13991;SDS011;7070;53.586;9.692;2023-05-10T02:25:24;0.50;;;0.50;;
13991;SDS011;7070;53.586;9.692;2023-05-10T02:27:52;0.57;;;0.57;;
13991;SDS011;7070;53.586;9.692;2023-05-10T02:30:21;0.50;;;0.50;;
13991;SDS011;7070;53.586;9.692;2023-05-10T02:32:50;0.50;;;0.50;;
13991;SDS011;7070;53.586;9.692;2023-05-10T02:35:17;0.50;;;0.50;;
13991;SDS011;7070;53.586;9.692;2023-05-10T02:37:46;0.50;;;0.50;;
13991;SDS011;7070;53.586;9.692;2023-05-10T02:40:13;0.50;;;0.50;;
13991;SDS011;7070;53.586;9.692;2023-05-10T02:42:41;0.50;;;0.50;;
13991;SDS011;7070;53.586;9.692;2023-05-10T02:45:11;0.50;;;0.50;;
13991;SDS011;7070;53.586;9.692;2023-05-10T02:47:40;0.50;;;0.50;;
13991;SDS011;7070;53.586;9.692;2023-05-10T02:50:07;0.60;;;0.60;;
13991;SDS011;7070;53.586;9.692;2023-05-10T02:52:37;0.50;;;0.50;;
13991;SDS011;7070;53.586;9.692;2023-05-10T02:55:08;0.60;;;0.60;;
13991;SDS011;7070;53.586;9.692;2023-05-10T02:57:38;0.60;;;0.60;;
13991;SDS011;7070;53.586;9.692;2023-05-10T03:00:12;0.43;;;0.43;;
13991;SDS011;7070;53.586;9.692;2023-05-10T03:02:39;0.50;;;0.50;;
13991;SDS011;7070;53.586;9.692;2023-05-10T03:05:06;0.40;;;0.40;;
13991;SDS011;7070;53.586;9.692;2023-05-10T03:07:34;0.50;;;0.50;;
13991;SDS011;7070;53.586;9.692;2023-05-10T03:10:01;0.50;;;0.50;;
13991;SDS011;7070;53.586;9.692;2023-05-10T03:12:33;0.50;;;0.50;;
13991;SDS011;7070;53.586;9.692;2023-05-10T03:15:19;0.50;;;0.50;;
13991;SDS011;7070;53.586;9.692;2023-05-10T03:17:55;0.50;;;0.50;;
13991;SDS011;7070;53.586;9.692;2023-05-10T03:20:28;0.50;;;0.50;;
13991;SDS011;7070;53.586;9.692;2023-05-10T03:23:02;0.50;;;0.50;;
13991;SDS011;7070;53.586;9.692;2023-05-10T03:25:33;0.50;;;0.50;;
13991;SDS011;7070;53.586;9.692;2023-05-10T03:28:02;0.60;;;0.60;;
13991;SDS011;7070;53.586;9.692;2023-05-10T03:30:30;0.50;;;0.50;;
13991;SDS011;7070;53.586;9.692;2023-05-10T03:32:59;0.57;;;0.57;;
13991;SDS011;7070;53.586;9.692;2023-05-10T03:35:31;0.50;;;0.50;;
13991;SDS011;7070;53.586;9.692;2023-05-10T03:37:58;0.50;;;0.50;;
13991;SDS011;7070;53.586;9.692;2023-05-10T03:40:25;0.50;;;0.50;;
13991;SDS011;7070;53.586;9.692;2023-05-10T03:42:53;0.50;;;0.50;;
13991;SDS011;7070;53.586;9.692;2023-05-10T03:45:22;0.40;;;0.40;;
13991;SDS011;7070;53.586;9.692;2023-05-10T03:47:48;0.50;;;0.50;;
13991;SDS011;7070;53.586;9.692;2023-05-10T03:50:16;0.50;;;0.50;;
13991;SDS011;7070;53.586;9.692;2023-05-10T03:52:43;0.50;;;0.50;;
13991;SDS011;7070;53.586;9.692;2023-05-10T03:55:10;0.50;;;0.50;;
13991;SDS011;7070;53.586;9.692;2023-05-10T03:57:37;0.50;;;0.50;;
13991;SDS011;7070;53.586;9.692;2023-05-10T04:00:04;0.50;;;0.50;;
13991;SDS011;7070;53.586;9.692;2023-05-10T04:02:33;0.50;;;0.50;;
13991;SDS011;7070;53.586;9.692;2023-05-10T04:05:00;0.50;;;0.50;;
13991;SDS011;7070;53.586;9.692;2023-05-10T04:07:27;0.50;;;0.50;;
13991;SDS011;7070;53.586;9.692;2023-05-10T04:09:54;0.50;;;0.50;;
13991;SDS011;7070;53.586;9.692;2023-05-10T04:12:21;0.50;;;0.50;;
13991;SDS011;7070;53.586;9.692;2023-05-10T04:14:48;0.50;;;0.50;;
13991;SDS011;7070;53.586;9.692;2023-05-10T04:17:17;0.50;;;0.50;;
13991;SDS011;7070;53.586;9.692;2023-05-10T04:19:45;0.40;;;0.40;;
13991;SDS011;7070;53.586;9.692;2023-05-10T04:22:12;0.50;;;0.50;;
13991;SDS011;7070;53.586;9.692;2023-05-10T04:24:39;0.50;;;0.50;;
13991;SDS011;7070;53.586;9.692;2023-05-10T04:27:06;0.57;;;0.57;;
13991;SDS011;7070;53.586;9.692;2023-05-10T04:29:33;0.50;;;0.50;;
13991;SDS011;7070;53.586;9.692;2023-05-10T04:31:59;0.43;;;0.43;;
13991;SDS011;7070;53.586;9.692;2023-05-10T04:34:26;0.50;;;0.50;;
13991;SDS011;7070;53.586;9.692;2023-05-10T04:36:55;0.50;;;0.50;;
13991;SDS011;7070;53.586;9.692;2023-05-10T04:39:21;0.50;;;0.50;;
13991;SDS011;7070;53.586;9.692;2023-05-10T04:41:48;0.50;;;0.50;;
13991;SDS011;7070;53.586;9.692;2023-05-10T04:44:15;0.60;;;0.60;;
13991;SDS011;7070;53.586;9.692;2023-05-10T04:46:42;0.50;;;0.50;;
13991;SDS011;7070;53.586;9.692;2023-05-10T04:49:09;0.50;;;0.50;;
13991;SDS011;7070;53.586;9.692;2023-05-10T04:51:35;0.50;;;0.50;;
13991;SDS011;7070;53.586;9.692;2023-05-10T04:54:04;0.50;;;0.50;;
13991;SDS011;7070;53.586;9.692;2023-05-10T04:56:30;0.60;;;0.60;;
13991;SDS011;7070;53.586;9.692;2023-05-10T04:58:57;0.40;;;0.40;;
13991;SDS011;7070;53.586;9.692;2023-05-10T05:01:24;0.50;;;0.50;;
13991;SDS011;7070;53.586;9.692;2023-05-10T05:03:51;0.50;;;0.50;;
13991;SDS011;7070;53.586;9.692;2023-05-10T05:06:18;0.40;;;0.40;;
13991;SDS011;7070;53.586;9.692;2023-05-10T05:08:45;0.50;;;0.50;;
13991;SDS011;7070;53.586;9.692;2023-05-10T05:11:15;0.50;;;0.50;;
13991;SDS011;7070;53.586;9.692;2023-05-10T05:13:42;0.50;;;0.50;;
13991;SDS011;7070;53.586;9.692;2023-05-10T05:16:09;0.50;;;0.50;;
13991;SDS011;7070;53.586;9.692;2023-05-10T05:18:36;0.50;;;0.50;;
13991;SDS011;7070;53.586;9.692;2023-05-10T05:21:03;0.40;;;0.40;;
13991;SDS011;7070;53.586;9.692;2023-05-10T05:23:39;0.50;;;0.50;;
13991;SDS011;7070;53.586;9.692;2023-05-10T05:26:05;0.50;;;0.50;;
13991;SDS011;7070;53.586;9.692;2023-05-10T05:28:34;0.53;;;0.53;;
13991;SDS011;7070;53.586;9.692;2023-05-10T05:31:02;0.40;;;0.40;;
13991;SDS011;7070;53.586;9.692;2023-05-10T05:33:29;0.50;;;0.50;;
13991;SDS011;7070;53.586;9.692;2023-05-10T05:35:56;0.40;;;0.40;;
13991;SDS011;7070;53.586;9.692;2023-05-10T05:38:22;0.50;;;0.50;;
13991;SDS011;7070;53.586;9.692;2023-05-10T05:40:49;0.50;;;0.50;;
13991;SDS011;7070;53.586;9.692;2023-05-10T05:43:16;0.40;;;0.40;;
13991;SDS011;7070;53.586;9.692;2023-05-10T05:45:44;0.40;;;0.40;;
13991;SDS011;7070;53.586;9.692;2023-05-10T05:48:11;0.40;;;0.40;;
13991;SDS011;7070;53.586;9.692;2023-05-10T05:50:38;0.50;;;0.50;;
13991;SDS011;7070;53.586;9.692;2023-05-10T05:53:05;0.40;;;0.40;;
13991;SDS011;7070;53.586;9.692;2023-05-10T05:55:32;0.50;;;0.50;;
13991;SDS011;7070;53.586;9.692;2023-05-10T05:57:59;0.40;;;0.40;;
13991;SDS011;7070;53.586;9.692;2023-05-10T06:00:26;0.40;;;0.40;;
13991;SDS011;7070;53.586;9.692;2023-05-10T06:02:54;0.40;;;0.40;;
13991;SDS011;7070;53.586;9.692;2023-05-10T06:05:21;0.40;;;0.40;;
13991;SDS011;7070;53.586;9.692;2023-05-10T06:07:48;0.50;;;0.50;;
13991;SDS011;7070;53.586;9.692;2023-05-10T06:10:15;0.50;;;0.50;;
13991;SDS011;7070;53.586;9.692;2023-05-10T06:12:41;0.43;;;0.43;;
13991;SDS011;7070;53.586;9.692;2023-05-10T06:15:09;0.47;;;0.47;;
13991;SDS011;7070;53.586;9.692;2023-05-10T06:17:36;0.40;;;0.40;;
13991;SDS011;7070;53.586;9.692;2023-05-10T06:20:05;0.40;;;0.40;;
13991;SDS011;7070;53.586;9.692;2023-05-10T06:22:33;0.43;;;0.43;;
13991;SDS011;7070;53.586;9.692;2023-05-10T06:25:00;0.43;;;0.43;;
13991;SDS011;7070;53.586;9.692;2023-05-10T06:27:27;0.40;;;0.40;;
13991;SDS011;7070;53.586;9.692;2023-05-10T06:29:54;0.40;;;0.40;;
13991;SDS011;7070;53.586;9.692;2023-05-10T06:32:21;0.47;;;0.47;;
13991;SDS011;7070;53.586;9.692;2023-05-10T06:34:48;0.50;;;0.50;;
13991;SDS011;7070;53.586;9.692;2023-05-10T06:37:16;0.40;;;0.40;;
13991;SDS011;7070;53.586;9.692;2023-05-10T06:39:43;0.40;;;0.40;;
13991;SDS011;7070;53.586;9.692;2023-05-10T06:42:10;0.40;;;0.40;;
13991;SDS011;7070;53.586;9.692;2023-05-10T06:44:36;0.40;;;0.40;;
13991;SDS011;7070;53.586;9.692;2023-05-10T06:47:03;0.40;;;0.40;;
13991;SDS011;7070;53.586;9.692;2023-05-10T06:49:30;0.40;;;0.40;;
13991;SDS011;7070;53.586;9.692;2023-05-10T06:51:57;0.40;;;0.40;;
13991;SDS011;7070;53.586;9.692;2023-05-10T06:54:25;0.50;;;0.50;;
13991;SDS011;7070;53.586;9.692;2023-05-10T06:56:52;0.40;;;0.40;;
13991;SDS011;7070;53.586;9.692;2023-05-10T06:59:19;0.40;;;0.40;;
13991;SDS011;7070;53.586;9.692;2023-05-10T07:01:46;0.40;;;0.40;;
13991;SDS011;7070;53.586;9.692;2023-05-10T07:04:13;0.40;;;0.40;;
13991;SDS011;7070;53.586;9.692;2023-05-10T07:06:40;0.40;;;0.40;;
13991;SDS011;7070;53.586;9.692;2023-05-10T07:09:07;0.40;;;0.40;;
13991;SDS011;7070;53.586;9.692;2023-05-10T07:11:35;0.40;;;0.40;;
13991;SDS011;7070;53.586;9.692;2023-05-10T07:14:02;0.40;;;0.40;;
13991;SDS011;7070;53.586;9.692;2023-05-10T07:16:29;0.40;;;0.40;;
13991;SDS011;7070;53.586;9.692;2023-05-10T07:18:56;0.30;;;0.30;;
13991;SDS011;7070;53.586;9.692;2023-05-10T07:21:23;0.50;;;0.50;;
13991;SDS011;7070;53.586;9.692;2023-05-10T07:23:50;0.40;;;0.40;;
13991;SDS011;7070;53.586;9.692;2023-05-10T07:26:17;0.40;;;0.40;;
13991;SDS011;7070;53.586;9.692;2023-05-10T07:28:45;0.40;;;0.40;;
13991;SDS011;7070;53.586;9.692;2023-05-10T07:31:12;0.40;;;0.40;;
13991;SDS011;7070;53.586;9.692;2023-05-10T07:33:39;0.40;;;0.40;;
13991;SDS011;7070;53.586;9.692;2023-05-10T07:36:06;0.37;;;0.37;;
13991;SDS011;7070;53.586;9.692;2023-05-10T07:38:33;0.40;;;0.40;;
13991;SDS011;7070;53.586;9.692;2023-05-10T07:41:00;0.30;;;0.30;;
13991;SDS011;7070;53.586;9.692;2023-05-10T07:43:27;0.40;;;0.40;;
13991;SDS011;7070;53.586;9.692;2023-05-10T07:45:55;0.30;;;0.30;;
13991;SDS011;7070;53.586;9.692;2023-05-10T07:48:24;0.30;;;0.30;;
13991;SDS011;7070;53.586;9.692;2023-05-10T07:50:51;0.30;;;0.30;;
13991;SDS011;7070;53.586;9.692;2023-05-10T07:53:18;0.30;;;0.30;;
13991;SDS011;7070;53.586;9.692;2023-05-10T07:55:49;0.40;;;0.40;;
13991;SDS011;7070;53.586;9.692;2023-05-10T07:58:16;0.30;;;0.30;;
13991;SDS011;7070;53.586;9.692;2023-05-10T08:00:43;0.30;;;0.30;;
13991;SDS011;7070;53.586;9.692;2023-05-10T08:03:11;0.40;;;0.40;;
13991;SDS011;7070;53.586;9.692;2023-05-10T08:05:38;0.40;;;0.40;;
13991;SDS011;7070;53.586;9.692;2023-05-10T08:08:05;0.30;;;0.30;;
13991;SDS011;7070;53.586;9.692;2023-05-10T08:10:32;0.30;;;0.30;;
13991;SDS011;7070;53.586;9.692;2023-05-10T08:12:59;0.30;;;0.30;;
13991;SDS011;7070;53.586;9.692;2023-05-10T08:15:26;0.30;;;0.30;;
13991;SDS011;7070;53.586;9.692;2023-05-10T08:17:53;0.30;;;0.30;;
13991;SDS011;7070;53.586;9.692;2023-05-10T08:20:21;0.33;;;0.33;;
13991;SDS011;7070;53.586;9.692;2023-05-10T08:22:48;0.40;;;0.40;;
13991;SDS011;7070;53.586;9.692;2023-05-10T08:25:15;0.30;;;0.30;;
13991;SDS011;7070;53.586;9.692;2023-05-10T08:27:42;0.40;;;0.40;;
13991;SDS011;7070;53.586;9.692;2023-05-10T08:30:09;0.30;;;0.30;;
13991;SDS011;7070;53.586;9.692;2023-05-10T08:32:37;0.30;;;0.30;;
13991;SDS011;7070;53.586;9.692;2023-05-10T08:35:04;0.30;;;0.30;;
13991;SDS011;7070;53.586;9.692;2023-05-10T08:37:32;0.30;;;0.30;;
13991;SDS011;7070;53.586;9.692;2023-05-10T08:39:59;0.40;;;0.40;;
13991;SDS011;7070;53.586;9.692;2023-05-10T08:42:27;0.30;;;0.30;;
13991;SDS011;7070;53.586;9.692;2023-05-10T08:44:56;0.40;;;0.40;;
13991;SDS011;7070;53.586;9.692;2023-05-10T08:47:23;0.33;;;0.33;;
13991;SDS011;7070;53.586;9.692;2023-05-10T08:49:51;0.30;;;0.30;;
13991;SDS011;7070;53.586;9.692;2023-05-10T08:52:19;0.40;;;0.40;;
13991;SDS011;7070;53.586;9.692;2023-05-10T08:54:49;0.40;;;0.40;;
13991;SDS011;7070;53.586;9.692;2023-05-10T08:57:16;0.40;;;0.40;;
13991;SDS011;7070;53.586;9.692;2023-05-10T08:59:43;0.40;;;0.40;;
13991;SDS011;7070;53.586;9.692;2023-05-10T09:02:10;0.40;;;0.40;;
13991;SDS011;7070;53.586;9.692;2023-05-10T09:04:39;0.40;;;0.40;;
13991;SDS011;7070;53.586;9.692;2023-05-10T09:07:06;0.30;;;0.30;;
13991;SDS011;7070;53.586;9.692;2023-05-10T09:09:33;0.40;;;0.40;;
13991;SDS011;7070;53.586;9.692;2023-05-10T09:12:02;0.40;;;0.40;;
13991;SDS011;7070;53.586;9.692;2023-05-10T09:14:29;0.30;;;0.30;;
13991;SDS011;7070;53.586;9.692;2023-05-10T09:16:58;0.40;;;0.40;;
13991;SDS011;7070;53.586;9.692;2023-05-10T09:19:25;0.33;;;0.33;;
13991;SDS011;7070;53.586;9.692;2023-05-10T09:21:53;0.30;;;0.30;;
13991;SDS011;7070;53.586;9.692;2023-05-10T09:24:20;0.40;;;0.40;;
13991;SDS011;7070;53.586;9.692;2023-05-10T09:26:51;0.40;;;0.40;;
13991;SDS011;7070;53.586;9.692;2023-05-10T09:29:19;0.30;;;0.30;;
13991;SDS011;7070;53.586;9.692;2023-05-10T09:31:47;0.40;;;0.40;;
13991;SDS011;7070;53.586;9.692;2023-05-10T09:34:16;0.30;;;0.30;;
13991;SDS011;7070;53.586;9.692;2023-05-10T09:36:50;0.40;;;0.40;;
13991;SDS011;7070;53.586;9.692;2023-05-10T09:39:19;0.33;;;0.33;;
13991;SDS011;7070;53.586;9.692;2023-05-10T09:41:46;0.40;;;0.40;;
13991;SDS011;7070;53.586;9.692;2023-05-10T09:44:16;0.33;;;0.33;;
13991;SDS011;7070;53.586;9.692;2023-05-10T09:46:49;0.30;;;0.30;;
13991;SDS011;7070;53.586;9.692;2023-05-10T09:49:17;0.50;;;0.50;;
13991;SDS011;7070;53.586;9.692;2023-05-10T09:51:44;0.30;;;0.30;;
13991;SDS011;7070;53.586;9.692;2023-05-10T09:54:11;0.40;;;0.40;;
13991;SDS011;7070;53.586;9.692;2023-05-10T09:56:39;0.40;;;0.40;;
13991;SDS011;7070;53.586;9.692;2023-05-10T09:59:07;0.40;;;0.40;;
13991;SDS011;7070;53.586;9.692;2023-05-10T10:01:35;0.40;;;0.40;;
13991;SDS011;7070;53.586;9.692;2023-05-10T10:04:04;0.47;;;0.47;;
13991;SDS011;7070;53.586;9.692;2023-05-10T10:06:35;0.30;;;0.30;;
13991;SDS011;7070;53.586;9.692;2023-05-10T10:09:03;0.37;;;0.37;;
13991;SDS011;7070;53.586;9.692;2023-05-10T10:11:30;0.40;;;0.40;;
13991;SDS011;7070;53.586;9.692;2023-05-10T10:13:57;0.40;;;0.40;;
13991;SDS011;7070;53.586;9.692;2023-05-10T10:16:24;0.40;;;0.40;;
13991;SDS011;7070;53.586;9.692;2023-05-10T10:18:52;0.40;;;0.40;;
13991;SDS011;7070;53.586;9.692;2023-05-10T10:21:21;0.40;;;0.40;;
13991;SDS011;7070;53.586;9.692;2023-05-10T10:23:48;0.40;;;0.40;;
13991;SDS011;7070;53.586;9.692;2023-05-10T10:26:15;0.40;;;0.40;;
13991;SDS011;7070;53.586;9.692;2023-05-10T10:28:46;0.40;;;0.40;;
13991;SDS011;7070;53.586;9.692;2023-05-10T10:31:24;0.40;;;0.40;;
13991;SDS011;7070;53.586;9.692;2023-05-10T10:33:59;0.43;;;0.43;;
13991;SDS011;7070;53.586;9.692;2023-05-10T10:36:29;0.40;;;0.40;;
13991;SDS011;7070;53.586;9.692;2023-05-10T10:38:58;0.40;;;0.40;;
13991;SDS011;7070;53.586;9.692;2023-05-10T10:41:27;0.40;;;0.40;;
13991;SDS011;7070;53.586;9.692;2023-05-10T10:47:07;0.30;;;0.30;;
13991;SDS011;7070;53.586;9.692;2023-05-10T10:50:02;0.40;;;0.40;;
13991;SDS011;7070;53.586;9.692;2023-05-10T10:52:34;0.40;;;0.40;;
13991;SDS011;7070;53.586;9.692;2023-05-10T10:55:04;0.40;;;0.40;;
13991;SDS011;7070;53.586;9.692;2023-05-10T10:57:35;0.50;;;0.50;;
13991;SDS011;7070;53.586;9.692;2023-05-10T11:00:19;0.40;;;0.40;;
13991;SDS011;7070;53.586;9.692;2023-05-10T11:02:52;0.40;;;0.40;;
13991;SDS011;7070;53.586;9.692;2023-05-10T11:05:33;0.40;;;0.40;;
13991;SDS011;7070;53.586;9.692;2023-05-10T11:08:14;0.40;;;0.40;;
13991;SDS011;7070;53.586;9.692;2023-05-10T11:10:49;0.40;;;0.40;;
13991;SDS011;7070;53.586;9.692;2023-05-10T11:13:21;0.40;;;0.40;;
13991;SDS011;7070;53.586;9.692;2023-05-10T11:15:54;0.40;;;0.40;;
13991;SDS011;7070;53.586;9.692;2023-05-10T11:18:23;0.40;;;0.40;;
13991;SDS011;7070;53.586;9.692;2023-05-10T11:20:51;0.40;;;0.40;;
13991;SDS011;7070;53.586;9.692;2023-05-10T11:23:20;0.40;;;0.40;;
13991;SDS011;7070;53.586;9.692;2023-05-10T11:25:47;0.40;;;0.40;;
13991;SDS011;7070;53.586;9.692;2023-05-10T11:28:16;0.50;;;0.50;;
13991;SDS011;7070;53.586;9.692;2023-05-10T11:30:44;0.40;;;0.40;;
13991;SDS011;7070;53.586;9.692;2023-05-10T11:33:15;0.40;;;0.40;;
13991;SDS011;7070;53.586;9.692;2023-05-10T11:35:42;0.40;;;0.40;;
13991;SDS011;7070;53.586;9.692;2023-05-10T11:38:10;0.40;;;0.40;;
13991;SDS011;7070;53.586;9.692;2023-05-10T11:40:39;0.40;;;0.40;;
13991;SDS011;7070;53.586;9.692;2023-05-10T11:43:08;0.40;;;0.40;;
13991;SDS011;7070;53.586;9.692;2023-05-10T11:45:35;0.40;;;0.40;;
13991;SDS011;7070;53.586;9.692;2023-05-10T11:48:02;0.40;;;0.40;;
13991;SDS011;7070;53.586;9.692;2023-05-10T11:50:29;0.40;;;0.40;;
13991;SDS011;7070;53.586;9.692;2023-05-10T11:52:56;0.40;;;0.40;;
13991;SDS011;7070;53.586;9.692;2023-05-10T11:55:23;0.40;;;0.40;;
13991;SDS011;7070;53.586;9.692;2023-05-10T11:57:55;0.40;;;0.40;;
13991;SDS011;7070;53.586;9.692;2023-05-10T12:00:26;0.50;;;0.50;;
13991;SDS011;7070;53.586;9.692;2023-05-10T12:02:53;0.40;;;0.40;;
13991;SDS011;7070;53.586;9.692;2023-05-10T12:05:20;0.40;;;0.40;;
13991;SDS011;7070;53.586;9.692;2023-05-10T12:07:47;0.40;;;0.40;;
13991;SDS011;7070;53.586;9.692;2023-05-10T12:10:14;0.40;;;0.40;;
13991;SDS011;7070;53.586;9.692;2023-05-10T12:12:42;0.40;;;0.40;;
13991;SDS011;7070;53.586;9.692;2023-05-10T12:15:12;0.40;;;0.40;;
13991;SDS011;7070;53.586;9.692;2023-05-10T12:17:44;0.30;;;0.30;;
13991;SDS011;7070;53.586;9.692;2023-05-10T12:20:15;0.30;;;0.30;;
13991;SDS011;7070;53.586;9.692;2023-05-10T12:22:44;0.30;;;0.30;;
13991;SDS011;7070;53.586;9.692;2023-05-10T12:25:11;0.40;;;0.40;;
13991;SDS011;7070;53.586;9.692;2023-05-10T12:27:38;0.40;;;0.40;;
13991;SDS011;7070;53.586;9.692;2023-05-10T12:30:06;0.40;;;0.40;;
13991;SDS011;7070;53.586;9.692;2023-05-10T12:32:38;0.40;;;0.40;;
13991;SDS011;7070;53.586;9.692;2023-05-10T12:35:06;0.40;;;0.40;;
13991;SDS011;7070;53.586;9.692;2023-05-10T12:37:33;0.40;;;0.40;;
13991;SDS011;7070;53.586;9.692;2023-05-10T12:40:04;0.30;;;0.30;;
13991;SDS011;7070;53.586;9.692;2023-05-10T12:42:33;0.40;;;0.40;;
13991;SDS011;7070;53.586;9.692;2023-05-10T12:45:00;0.50;;;0.50;;
13991;SDS011;7070;53.586;9.692;2023-05-10T12:47:27;0.30;;;0.30;;
13991;SDS011;7070;53.586;9.692;2023-05-10T12:49:55;0.30;;;0.30;;
13991;SDS011;7070;53.586;9.692;2023-05-10T12:52:22;0.40;;;0.40;;
13991;SDS011;7070;53.586;9.692;2023-05-10T12:54:49;0.40;;;0.40;;
13991;SDS011;7070;53.586;9.692;2023-05-10T12:57:16;0.30;;;0.30;;
13991;SDS011;7070;53.586;9.692;2023-05-10T12:59:43;0.37;;;0.37;;
13991;SDS011;7070;53.586;9.692;2023-05-10T13:02:10;0.30;;;0.30;;
13991;SDS011;7070;53.586;9.692;2023-05-10T13:04:36;0.30;;;0.30;;
13991;SDS011;7070;53.586;9.692;2023-05-10T13:07:06;0.40;;;0.40;;
13991;SDS011;7070;53.586;9.692;2023-05-10T13:09:33;0.30;;;0.30;;
13991;SDS011;7070;53.586;9.692;2023-05-10T13:12:01;0.30;;;0.30;;
13991;SDS011;7070;53.586;9.692;2023-05-10T13:14:29;0.30;;;0.30;;
13991;SDS011;7070;53.586;9.692;2023-05-10T13:16:56;0.40;;;0.40;;
13991;SDS011;7070;53.586;9.692;2023-05-10T13:19:23;0.30;;;0.30;;
13991;SDS011;7070;53.586;9.692;2023-05-10T13:21:50;0.30;;;0.30;;
13991;SDS011;7070;53.586;9.692;2023-05-10T13:24:18;0.30;;;0.30;;
13991;SDS011;7070;53.586;9.692;2023-05-10T13:26:45;0.30;;;0.30;;
13991;SDS011;7070;53.586;9.692;2023-05-10T13:29:12;0.30;;;0.30;;
13991;SDS011;7070;53.586;9.692;2023-05-10T13:31:39;0.30;;;0.30;;
13991;SDS011;7070;53.586;9.692;2023-05-10T13:34:05;0.30;;;0.30;;
13991;SDS011;7070;53.586;9.692;2023-05-10T13:36:32;0.30;;;0.30;;
13991;SDS011;7070;53.586;9.692;2023-05-10T13:38:59;0.30;;;0.30;;
13991;SDS011;7070;53.586;9.692;2023-05-10T13:41:29;0.30;;;0.30;;
13991;SDS011;7070;53.586;9.692;2023-05-10T13:43:56;0.30;;;0.30;;
13991;SDS011;7070;53.586;9.692;2023-05-10T13:46:23;0.30;;;0.30;;
13991;SDS011;7070;53.586;9.692;2023-05-10T13:48:50;0.30;;;0.30;;
13991;SDS011;7070;53.586;9.692;2023-05-10T13:51:17;0.30;;;0.30;;
13991;SDS011;7070;53.586;9.692;2023-05-10T13:53:44;0.30;;;0.30;;
13991;SDS011;7070;53.586;9.692;2023-05-10T13:56:12;0.40;;;0.40;;
13991;SDS011;7070;53.586;9.692;2023-05-10T13:58:40;0.30;;;0.30;;
13991;SDS011;7070;53.586;9.692;2023-05-10T14:01:07;0.30;;;0.30;;
13991;SDS011;7070;53.586;9.692;2023-05-10T14:03:34;0.40;;;0.40;;
13991;SDS011;7070;53.586;9.692;2023-05-10T14:06:02;0.30;;;0.30;;
13991;SDS011;7070;53.586;9.692;2023-05-10T14:08:28;0.40;;;0.40;;
13991;SDS011;7070;53.586;9.692;2023-05-10T14:10:55;0.30;;;0.30;;
13991;SDS011;7070;53.586;9.692;2023-05-10T14:13:23;0.30;;;0.30;;
13991;SDS011;7070;53.586;9.692;2023-05-10T14:15:51;0.40;;;0.40;;
13991;SDS011;7070;53.586;9.692;2023-05-10T14:18:19;0.30;;;0.30;;
13991;SDS011;7070;53.586;9.692;2023-05-10T14:20:46;0.30;;;0.30;;
13991;SDS011;7070;53.586;9.692;2023-05-10T14:23:13;0.40;;;0.40;;
13991;SDS011;7070;53.586;9.692;2023-05-10T14:25:40;0.30;;;0.30;;
13991;SDS011;7070;53.586;9.692;2023-05-10T14:28:07;0.40;;;0.40;;
13991;SDS011;7070;53.586;9.692;2023-05-10T14:30:34;0.40;;;0.40;;
13991;SDS011;7070;53.586;9.692;2023-05-10T14:33:03;0.30;;;0.30;;
13991;SDS011;7070;53.586;9.692;2023-05-10T14:35:29;0.30;;;0.30;;
13991;SDS011;7070;53.586;9.692;2023-05-10T14:37:57;0.30;;;0.30;;
13991;SDS011;7070;53.586;9.692;2023-05-10T14:40:23;0.30;;;0.30;;
13991;SDS011;7070;53.586;9.692;2023-05-10T14:42:51;0.30;;;0.30;;
13991;SDS011;7070;53.586;9.692;2023-05-10T14:45:18;0.27;;;0.27;;
13991;SDS011;7070;53.586;9.692;2023-05-10T14:47:46;0.30;;;0.30;;
13991;SDS011;7070;53.586;9.692;2023-05-10T14:50:14;0.20;;;0.20;;
13991;SDS011;7070;53.586;9.692;2023-05-10T14:52:41;0.30;;;0.30;;
13991;SDS011;7070;53.586;9.692;2023-05-10T14:55:08;0.30;;;0.30;;
13991;SDS011;7070;53.586;9.692;2023-05-10T14:57:35;0.30;;;0.30;;
13991;SDS011;7070;53.586;9.692;2023-05-10T15:00:02;0.30;;;0.30;;
13991;SDS011;7070;53.586;9.692;2023-05-10T15:02:30;0.30;;;0.30;;
13991;SDS011;7070;53.586;9.692;2023-05-10T15:04:57;0.37;;;0.37;;
13991;SDS011;7070;53.586;9.692;2023-05-10T15:07:25;0.30;;;0.30;;
13991;SDS011;7070;53.586;9.692;2023-05-10T15:09:52;0.37;;;0.37;;
13991;SDS011;7070;53.586;9.692;2023-05-10T15:12:19;0.30;;;0.30;;